sensor_id;sensor_type;location;lat;lon;timestamp;temperature;humidity
46159;DHT22;31888;44.512;26.104;2023-03-14T00:01:25;7.00;80.40
46159;DHT22;31888;44.512;26.104;2023-03-14T00:03:50;7.00;80.40
46159;DHT22;31888;44.512;26.104;2023-03-14T00:06:14;7.00;81.10
46159;DHT22;31888;44.512;26.104;2023-03-14T00:08:41;7.00;81.60
46159;DHT22;31888;44.512;26.104;2023-03-14T00:11:07;6.90;82.20
46159;DHT22;31888;44.512;26.104;2023-03-14T00:13:32;6.80;82.70
46159;DHT22;31888;44.512;26.104;2023-03-14T00:16:02;6.80;82.80
46159;DHT22;31888;44.512;26.104;2023-03-14T00:18:28;6.80;82.60
46159;DHT22;31888;44.512;26.104;2023-03-14T00:20:52;6.80;81.70
46159;DHT22;31888;44.512;26.104;2023-03-14T00:23:17;6.90;81.30
46159;DHT22;31888;44.512;26.104;2023-03-14T00:25:42;6.90;81.20
46159;DHT22;31888;44.512;26.104;2023-03-14T00:28:06;6.90;81.00
46159;DHT22;31888;44.512;26.104;2023-03-14T00:30:30;6.80;81.90
46159;DHT22;31888;44.512;26.104;2023-03-14T00:32:55;6.60;82.80
46159;DHT22;31888;44.512;26.104;2023-03-14T00:35:21;6.50;82.30
46159;DHT22;31888;44.512;26.104;2023-03-14T00:37:45;6.60;82.70
46159;DHT22;31888;44.512;26.104;2023-03-14T00:40:10;6.50;83.40
46159;DHT22;31888;44.512;26.104;2023-03-14T00:42:35;6.40;84.40
46159;DHT22;31888;44.512;26.104;2023-03-14T00:44:59;6.30;84.70
46159;DHT22;31888;44.512;26.104;2023-03-14T00:47:25;6.30;84.40
46159;DHT22;31888;44.512;26.104;2023-03-14T00:49:49;6.30;84.20
46159;DHT22;31888;44.512;26.104;2023-03-14T00:52:15;6.40;84.50
46159;DHT22;31888;44.512;26.104;2023-03-14T00:54:40;6.40;85.20
46159;DHT22;31888;44.512;26.104;2023-03-14T00:57:04;6.30;85.70
46159;DHT22;31888;44.512;26.104;2023-03-14T00:59:29;6.30;85.60
46159;DHT22;31888;44.512;26.104;2023-03-14T01:01:53;6.20;85.50
46159;DHT22;31888;44.512;26.104;2023-03-14T01:04:18;6.30;85.00
46159;DHT22;31888;44.512;26.104;2023-03-14T01:06:42;6.40;83.90
46159;DHT22;31888;44.512;26.104;2023-03-14T01:09:08;6.40;84.00
46159;DHT22;31888;44.512;26.104;2023-03-14T01:11:34;6.10;84.40
46159;DHT22;31888;44.512;26.104;2023-03-14T01:14:00;6.00;85.40
46159;DHT22;31888;44.512;26.104;2023-03-14T01:16:26;5.80;85.40
46159;DHT22;31888;44.512;26.104;2023-03-14T01:18:51;5.60;86.30
46159;DHT22;31888;44.512;26.104;2023-03-14T01:21:18;5.60;87.00
46159;DHT22;31888;44.512;26.104;2023-03-14T01:23:44;5.60;86.30
46159;DHT22;31888;44.512;26.104;2023-03-14T01:26:12;5.50;86.90
46159;DHT22;31888;44.512;26.104;2023-03-14T01:28:37;5.60;86.90
46159;DHT22;31888;44.512;26.104;2023-03-14T01:31:03;5.60;87.50
46159;DHT22;31888;44.512;26.104;2023-03-14T01:33:28;5.70;86.60
46159;DHT22;31888;44.512;26.104;2023-03-14T01:35:53;5.70;86.60
46159;DHT22;31888;44.512;26.104;2023-03-14T01:38:17;5.70;86.50
46159;DHT22;31888;44.512;26.104;2023-03-14T01:40:45;5.70;86.40
46159;DHT22;31888;44.512;26.104;2023-03-14T01:43:16;5.60;86.40
46159;DHT22;31888;44.512;26.104;2023-03-14T01:46:17;5.60;86.90
46159;DHT22;31888;44.512;26.104;2023-03-14T01:48:48;5.50;86.80
46159;DHT22;31888;44.512;26.104;2023-03-14T01:51:18;5.50;87.50
46159;DHT22;31888;44.512;26.104;2023-03-14T01:53:45;5.40;87.50
46159;DHT22;31888;44.512;26.104;2023-03-14T01:56:11;5.40;87.50
46159;DHT22;31888;44.512;26.104;2023-03-14T01:58:39;5.40;87.00
46159;DHT22;31888;44.512;26.104;2023-03-14T02:01:06;5.40;87.20
46159;DHT22;31888;44.512;26.104;2023-03-14T02:03:37;5.10;88.20
46159;DHT22;31888;44.512;26.104;2023-03-14T02:06:04;5.10;87.90
46159;DHT22;31888;44.512;26.104;2023-03-14T02:08:33;5.10;88.00
46159;DHT22;31888;44.512;26.104;2023-03-14T02:11:03;5.20;88.00
46159;DHT22;31888;44.512;26.104;2023-03-14T02:13:55;5.20;88.10
46159;DHT22;31888;44.512;26.104;2023-03-14T02:16:42;5.10;88.30
46159;DHT22;31888;44.512;26.104;2023-03-14T02:22:29;5.00;88.40
46159;DHT22;31888;44.512;26.104;2023-03-14T02:25:04;5.00;89.40
46159;DHT22;31888;44.512;26.104;2023-03-14T02:27:33;5.00;88.80
46159;DHT22;31888;44.512;26.104;2023-03-14T02:30:00;5.00;88.60
46159;DHT22;31888;44.512;26.104;2023-03-14T02:32:26;4.90;88.50
46159;DHT22;31888;44.512;26.104;2023-03-14T02:34:54;4.90;88.70
46159;DHT22;31888;44.512;26.104;2023-03-14T02:37:22;4.70;89.50
46159;DHT22;31888;44.512;26.104;2023-03-14T02:39:47;4.50;90.10
46159;DHT22;31888;44.512;26.104;2023-03-14T02:42:13;4.50;90.30
46159;DHT22;31888;44.512;26.104;2023-03-14T02:44:50;4.60;89.80
46159;DHT22;31888;44.512;26.104;2023-03-14T02:47:16;4.40;90.20
46159;DHT22;31888;44.512;26.104;2023-03-14T02:49:41;4.40;90.30
46159;DHT22;31888;44.512;26.104;2023-03-14T02:52:06;4.40;90.20
46159;DHT22;31888;44.512;26.104;2023-03-14T02:54:30;4.40;90.10
46159;DHT22;31888;44.512;26.104;2023-03-14T02:56:55;4.20;90.20
46159;DHT22;31888;44.512;26.104;2023-03-14T02:59:20;4.10;90.70
46159;DHT22;31888;44.512;26.104;2023-03-14T03:01:53;4.00;90.60
46159;DHT22;31888;44.512;26.104;2023-03-14T03:04:19;3.80;90.90
46159;DHT22;31888;44.512;26.104;2023-03-14T03:06:43;3.90;91.40
46159;DHT22;31888;44.512;26.104;2023-03-14T03:09:08;3.90;91.30
46159;DHT22;31888;44.512;26.104;2023-03-14T03:11:33;3.70;91.60
46159;DHT22;31888;44.512;26.104;2023-03-14T03:13:59;3.80;92.00
46159;DHT22;31888;44.512;26.104;2023-03-14T03:16:25;3.60;91.90
46159;DHT22;31888;44.512;26.104;2023-03-14T03:18:51;3.40;92.30
46159;DHT22;31888;44.512;26.104;2023-03-14T03:21:16;3.20;92.90
46159;DHT22;31888;44.512;26.104;2023-03-14T03:23:41;3.00;93.30
46159;DHT22;31888;44.512;26.104;2023-03-14T03:26:08;2.90;93.60
46159;DHT22;31888;44.512;26.104;2023-03-14T03:28:33;2.90;93.70
46159;DHT22;31888;44.512;26.104;2023-03-14T03:30:58;2.90;93.90
46159;DHT22;31888;44.512;26.104;2023-03-14T03:33:24;2.90;93.90
46159;DHT22;31888;44.512;26.104;2023-03-14T03:35:50;2.90;93.80
46159;DHT22;31888;44.512;26.104;2023-03-14T03:38:22;2.80;93.90
46159;DHT22;31888;44.512;26.104;2023-03-14T03:40:49;2.90;93.80
46159;DHT22;31888;44.512;26.104;2023-03-14T03:43:14;3.10;93.80
46159;DHT22;31888;44.512;26.104;2023-03-14T03:45:40;3.10;93.50
46159;DHT22;31888;44.512;26.104;2023-03-14T03:48:05;3.20;93.30
46159;DHT22;31888;44.512;26.104;2023-03-14T03:50:30;3.20;93.20
46159;DHT22;31888;44.512;26.104;2023-03-14T03:52:56;3.20;93.30
46159;DHT22;31888;44.512;26.104;2023-03-14T03:55:20;3.20;93.30
46159;DHT22;31888;44.512;26.104;2023-03-14T03:57:45;3.10;93.30
46159;DHT22;31888;44.512;26.104;2023-03-14T04:00:10;3.00;93.40
46159;DHT22;31888;44.512;26.104;2023-03-14T04:02:38;3.00;93.40
46159;DHT22;31888;44.512;26.104;2023-03-14T04:05:06;2.90;93.50
46159;DHT22;31888;44.512;26.104;2023-03-14T04:07:32;2.80;93.40
46159;DHT22;31888;44.512;26.104;2023-03-14T04:09:59;2.80;93.60
46159;DHT22;31888;44.512;26.104;2023-03-14T04:12:35;2.70;93.70
46159;DHT22;31888;44.512;26.104;2023-03-14T04:15:03;2.70;93.80
46159;DHT22;31888;44.512;26.104;2023-03-14T04:17:28;2.70;93.90
46159;DHT22;31888;44.512;26.104;2023-03-14T04:19:53;2.70;93.90
46159;DHT22;31888;44.512;26.104;2023-03-14T04:22:25;2.70;93.80
46159;DHT22;31888;44.512;26.104;2023-03-14T04:24:50;2.70;93.50
46159;DHT22;31888;44.512;26.104;2023-03-14T04:27:17;2.70;93.40
46159;DHT22;31888;44.512;26.104;2023-03-14T04:29:43;2.70;93.20
46159;DHT22;31888;44.512;26.104;2023-03-14T04:32:11;2.80;93.20
46159;DHT22;31888;44.512;26.104;2023-03-14T04:34:35;2.80;93.00
46159;DHT22;31888;44.512;26.104;2023-03-14T04:37:00;3.00;92.40
46159;DHT22;31888;44.512;26.104;2023-03-14T04:39:30;3.30;92.00
46159;DHT22;31888;44.512;26.104;2023-03-14T04:42:03;3.70;91.30
46159;DHT22;31888;44.512;26.104;2023-03-14T04:44:33;4.40;90.70
46159;DHT22;31888;44.512;26.104;2023-03-14T04:46:57;5.20;88.20
46159;DHT22;31888;44.512;26.104;2023-03-14T04:49:22;6.00;85.40
46159;DHT22;31888;44.512;26.104;2023-03-14T04:51:47;6.90;81.90
46159;DHT22;31888;44.512;26.104;2023-03-14T04:54:14;7.00;80.10
46159;DHT22;31888;44.512;26.104;2023-03-14T04:56:38;7.50;78.90
46159;DHT22;31888;44.512;26.104;2023-03-14T04:59:04;8.10;77.70
46159;DHT22;31888;44.512;26.104;2023-03-14T05:01:33;8.40;76.00
46159;DHT22;31888;44.512;26.104;2023-03-14T05:04:15;8.90;76.40
46159;DHT22;31888;44.512;26.104;2023-03-14T05:07:07;9.30;76.50
46159;DHT22;31888;44.512;26.104;2023-03-14T05:09:42;9.70;75.10
46159;DHT22;31888;44.512;26.104;2023-03-14T05:12:21;9.70;74.00
46159;DHT22;31888;44.512;26.104;2023-03-14T05:15:05;9.20;74.90
46159;DHT22;31888;44.512;26.104;2023-03-14T05:17:45;9.00;76.60
46159;DHT22;31888;44.512;26.104;2023-03-14T05:20:31;9.10;76.10
46159;DHT22;31888;44.512;26.104;2023-03-14T05:23:25;9.20;76.20
46159;DHT22;31888;44.512;26.104;2023-03-14T05:26:08;9.20;75.50
46159;DHT22;31888;44.512;26.104;2023-03-14T05:28:51;9.60;75.80
46159;DHT22;31888;44.512;26.104;2023-03-14T05:31:31;10.00;74.90
46159;DHT22;31888;44.512;26.104;2023-03-14T05:34:07;9.70;72.80
46159;DHT22;31888;44.512;26.104;2023-03-14T05:37:06;9.30;74.20
46159;DHT22;31888;44.512;26.104;2023-03-14T05:39:42;8.40;75.40
46159;DHT22;31888;44.512;26.104;2023-03-14T05:42:39;7.90;77.50
46159;DHT22;31888;44.512;26.104;2023-03-14T05:45:23;7.50;78.20
46159;DHT22;31888;44.512;26.104;2023-03-14T05:48:10;7.70;78.20
46159;DHT22;31888;44.512;26.104;2023-03-14T05:50:56;7.50;78.40
46159;DHT22;31888;44.512;26.104;2023-03-14T05:53:39;7.20;78.70
46159;DHT22;31888;44.512;26.104;2023-03-14T05:56:26;7.20;78.30
46159;DHT22;31888;44.512;26.104;2023-03-14T05:59:13;7.40;79.90
46159;DHT22;31888;44.512;26.104;2023-03-14T06:01:54;7.90;79.20
46159;DHT22;31888;44.512;26.104;2023-03-14T06:04:22;8.70;76.50
46159;DHT22;31888;44.512;26.104;2023-03-14T06:06:52;8.80;75.20
46159;DHT22;31888;44.512;26.104;2023-03-14T06:09:19;9.00;75.30
46159;DHT22;31888;44.512;26.104;2023-03-14T06:11:47;9.10;73.80
46159;DHT22;31888;44.512;26.104;2023-03-14T06:14:12;9.20;73.70
46159;DHT22;31888;44.512;26.104;2023-03-14T06:16:41;9.60;72.60
46159;DHT22;31888;44.512;26.104;2023-03-14T06:19:06;9.80;71.90
46159;DHT22;31888;44.512;26.104;2023-03-14T06:21:32;10.40;71.50
46159;DHT22;31888;44.512;26.104;2023-03-14T06:23:58;10.40;69.50
46159;DHT22;31888;44.512;26.104;2023-03-14T06:26:26;10.60;70.40
46159;DHT22;31888;44.512;26.104;2023-03-14T06:28:51;10.70;68.00
46159;DHT22;31888;44.512;26.104;2023-03-14T06:31:17;10.70;67.30
46159;DHT22;31888;44.512;26.104;2023-03-14T06:33:48;10.80;67.90
46159;DHT22;31888;44.512;26.104;2023-03-14T06:36:14;10.90;66.90
46159;DHT22;31888;44.512;26.104;2023-03-14T06:38:41;10.90;66.90
46159;DHT22;31888;44.512;26.104;2023-03-14T06:41:07;11.00;66.20
46159;DHT22;31888;44.512;26.104;2023-03-14T06:43:38;11.60;66.30
46159;DHT22;31888;44.512;26.104;2023-03-14T06:46:04;12.30;65.80
46159;DHT22;31888;44.512;26.104;2023-03-14T06:48:31;12.20;63.20
46159;DHT22;31888;44.512;26.104;2023-03-14T06:50:56;12.60;61.90
46159;DHT22;31888;44.512;26.104;2023-03-14T06:53:21;12.80;60.90
46159;DHT22;31888;44.512;26.104;2023-03-14T06:55:46;12.90;60.90
46159;DHT22;31888;44.512;26.104;2023-03-14T06:58:14;13.10;60.60
46159;DHT22;31888;44.512;26.104;2023-03-14T07:00:40;13.40;60.70
46159;DHT22;31888;44.512;26.104;2023-03-14T07:03:09;13.70;59.90
46159;DHT22;31888;44.512;26.104;2023-03-14T07:05:37;13.30;60.00
46159;DHT22;31888;44.512;26.104;2023-03-14T07:08:04;12.80;61.40
46159;DHT22;31888;44.512;26.104;2023-03-14T07:10:28;12.80;61.20
46159;DHT22;31888;44.512;26.104;2023-03-14T07:12:53;12.40;63.20
46159;DHT22;31888;44.512;26.104;2023-03-14T07:15:23;12.50;62.90
46159;DHT22;31888;44.512;26.104;2023-03-14T07:17:52;12.00;63.70
46159;DHT22;31888;44.512;26.104;2023-03-14T07:20:18;12.10;63.00
46159;DHT22;31888;44.512;26.104;2023-03-14T07:22:47;12.80;62.00
46159;DHT22;31888;44.512;26.104;2023-03-14T07:25:17;12.60;61.80
46159;DHT22;31888;44.512;26.104;2023-03-14T07:27:43;12.50;62.60
46159;DHT22;31888;44.512;26.104;2023-03-14T07:30:08;12.40;62.80
46159;DHT22;31888;44.512;26.104;2023-03-14T07:32:35;12.30;62.40
46159;DHT22;31888;44.512;26.104;2023-03-14T07:35:00;12.50;61.90
46159;DHT22;31888;44.512;26.104;2023-03-14T07:37:25;12.80;61.10
46159;DHT22;31888;44.512;26.104;2023-03-14T07:39:50;12.70;60.80
46159;DHT22;31888;44.512;26.104;2023-03-14T07:42:17;12.60;61.90
46159;DHT22;31888;44.512;26.104;2023-03-14T07:45:04;13.00;60.60
46159;DHT22;31888;44.512;26.104;2023-03-14T07:47:29;13.20;60.50
46159;DHT22;31888;44.512;26.104;2023-03-14T07:49:55;13.00;61.20
46159;DHT22;31888;44.512;26.104;2023-03-14T07:52:20;13.40;60.80
46159;DHT22;31888;44.512;26.104;2023-03-14T07:54:44;13.50;59.70
46159;DHT22;31888;44.512;26.104;2023-03-14T07:57:09;13.70;59.30
46159;DHT22;31888;44.512;26.104;2023-03-14T07:59:33;14.00;58.90
46159;DHT22;31888;44.512;26.104;2023-03-14T08:01:58;14.30;58.10
46159;DHT22;31888;44.512;26.104;2023-03-14T08:04:22;13.90;57.90
46159;DHT22;31888;44.512;26.104;2023-03-14T08:06:48;13.70;58.80
46159;DHT22;31888;44.512;26.104;2023-03-14T08:09:13;13.80;58.00
46159;DHT22;31888;44.512;26.104;2023-03-14T08:11:38;13.30;58.10
46159;DHT22;31888;44.512;26.104;2023-03-14T08:14:02;13.90;57.80
46159;DHT22;31888;44.512;26.104;2023-03-14T08:16:27;13.90;57.50
46159;DHT22;31888;44.512;26.104;2023-03-14T08:18:51;14.00;58.40
46159;DHT22;31888;44.512;26.104;2023-03-14T08:21:16;14.30;57.90
46159;DHT22;31888;44.512;26.104;2023-03-14T08:23:42;14.50;58.00
46159;DHT22;31888;44.512;26.104;2023-03-14T08:26:07;14.70;57.90
46159;DHT22;31888;44.512;26.104;2023-03-14T08:28:31;14.40;57.20
46159;DHT22;31888;44.512;26.104;2023-03-14T08:30:56;14.20;58.00
46159;DHT22;31888;44.512;26.104;2023-03-14T08:33:21;13.70;58.10
46159;DHT22;31888;44.512;26.104;2023-03-14T08:35:46;13.80;57.90
46159;DHT22;31888;44.512;26.104;2023-03-14T08:38:11;13.90;56.60
46159;DHT22;31888;44.512;26.104;2023-03-14T08:40:37;14.10;56.90
46159;DHT22;31888;44.512;26.104;2023-03-14T08:43:01;14.40;56.20
46159;DHT22;31888;44.512;26.104;2023-03-14T08:45:26;14.70;56.10
46159;DHT22;31888;44.512;26.104;2023-03-14T08:47:51;15.20;55.20
46159;DHT22;31888;44.512;26.104;2023-03-14T08:50:15;14.90;55.20
46159;DHT22;31888;44.512;26.104;2023-03-14T08:52:40;14.70;55.80
46159;DHT22;31888;44.512;26.104;2023-03-14T08:55:05;14.90;55.70
46159;DHT22;31888;44.512;26.104;2023-03-14T08:57:31;14.80;55.10
46159;DHT22;31888;44.512;26.104;2023-03-14T08:59:56;15.00;55.30
46159;DHT22;31888;44.512;26.104;2023-03-14T09:02:21;14.90;55.00
46159;DHT22;31888;44.512;26.104;2023-03-14T09:04:45;14.80;55.30
46159;DHT22;31888;44.512;26.104;2023-03-14T09:07:10;14.70;55.90
46159;DHT22;31888;44.512;26.104;2023-03-14T09:09:35;14.90;55.60
46159;DHT22;31888;44.512;26.104;2023-03-14T09:11:59;15.10;55.90
46159;DHT22;31888;44.512;26.104;2023-03-14T09:14:25;14.90;56.10
46159;DHT22;31888;44.512;26.104;2023-03-14T09:16:49;14.90;55.00
46159;DHT22;31888;44.512;26.104;2023-03-14T09:19:14;15.20;53.10
46159;DHT22;31888;44.512;26.104;2023-03-14T09:21:39;15.50;53.60
46159;DHT22;31888;44.512;26.104;2023-03-14T09:24:04;15.30;52.60
46159;DHT22;31888;44.512;26.104;2023-03-14T09:26:29;15.30;52.00
46159;DHT22;31888;44.512;26.104;2023-03-14T09:28:53;15.40;51.80
46159;DHT22;31888;44.512;26.104;2023-03-14T09:31:21;15.80;52.20
46159;DHT22;31888;44.512;26.104;2023-03-14T09:33:46;16.00;51.60
46159;DHT22;31888;44.512;26.104;2023-03-14T09:36:11;15.80;51.80
46159;DHT22;31888;44.512;26.104;2023-03-14T09:38:35;15.70;51.40
46159;DHT22;31888;44.512;26.104;2023-03-14T09:41:01;15.50;51.60
46159;DHT22;31888;44.512;26.104;2023-03-14T09:43:30;15.80;51.30
46159;DHT22;31888;44.512;26.104;2023-03-14T09:45:56;15.70;51.40
46159;DHT22;31888;44.512;26.104;2023-03-14T09:48:27;15.70;51.40
46159;DHT22;31888;44.512;26.104;2023-03-14T09:50:55;15.80;51.40
46159;DHT22;31888;44.512;26.104;2023-03-14T10:11:28;16.30;47.10
46159;DHT22;31888;44.512;26.104;2023-03-14T10:14:05;17.70;42.70
46159;DHT22;31888;44.512;26.104;2023-03-14T10:16:32;17.80;42.40
46159;DHT22;31888;44.512;26.104;2023-03-14T10:19:02;17.10;42.70
46159;DHT22;31888;44.512;26.104;2023-03-14T10:21:29;17.30;43.40
46159;DHT22;31888;44.512;26.104;2023-03-14T10:24:17;17.60;43.10
46159;DHT22;31888;44.512;26.104;2023-03-14T10:26:45;17.70;41.40
46159;DHT22;31888;44.512;26.104;2023-03-14T10:29:12;17.40;40.70
46159;DHT22;31888;44.512;26.104;2023-03-14T10:31:47;16.90;41.20
46159;DHT22;31888;44.512;26.104;2023-03-14T10:34:22;17.00;40.00
46159;DHT22;31888;44.512;26.104;2023-03-14T10:36:52;16.60;41.80
46159;DHT22;31888;44.512;26.104;2023-03-14T10:39:27;17.00;42.10
46159;DHT22;31888;44.512;26.104;2023-03-14T10:41:55;17.00;41.30
46159;DHT22;31888;44.512;26.104;2023-03-14T10:44:25;16.50;39.90
46159;DHT22;31888;44.512;26.104;2023-03-14T10:46:56;16.80;39.20
46159;DHT22;31888;44.512;26.104;2023-03-14T10:49:28;16.80;37.00
46159;DHT22;31888;44.512;26.104;2023-03-14T10:51:52;17.20;34.90
46159;DHT22;31888;44.512;26.104;2023-03-14T10:54:20;17.40;35.50
46159;DHT22;31888;44.512;26.104;2023-03-14T10:56:57;17.30;35.70
46159;DHT22;31888;44.512;26.104;2023-03-14T10:59:22;17.30;35.60
46159;DHT22;31888;44.512;26.104;2023-03-14T11:01:52;17.50;36.50
46159;DHT22;31888;44.512;26.104;2023-03-14T11:04:35;17.50;37.20
46159;DHT22;31888;44.512;26.104;2023-03-14T11:07:07;17.00;37.70
46159;DHT22;31888;44.512;26.104;2023-03-14T11:09:37;17.10;38.30
46159;DHT22;31888;44.512;26.104;2023-03-14T11:12:19;17.20;37.60
46159;DHT22;31888;44.512;26.104;2023-03-14T11:14:54;17.30;37.90
46159;DHT22;31888;44.512;26.104;2023-03-14T11:17:27;17.10;37.90
46159;DHT22;31888;44.512;26.104;2023-03-14T11:20:04;16.50;38.00
46159;DHT22;31888;44.512;26.104;2023-03-14T11:22:38;16.40;38.60
46159;DHT22;31888;44.512;26.104;2023-03-14T11:25:12;16.70;38.30
46159;DHT22;31888;44.512;26.104;2023-03-14T11:38:14;16.90;37.90
46159;DHT22;31888;44.512;26.104;2023-03-14T11:40:39;16.50;39.50
46159;DHT22;31888;44.512;26.104;2023-03-14T11:43:11;16.60;39.50
46159;DHT22;31888;44.512;26.104;2023-03-14T11:45:39;16.50;39.00
46159;DHT22;31888;44.512;26.104;2023-03-14T11:48:16;16.60;39.30
46159;DHT22;31888;44.512;26.104;2023-03-14T11:50:43;16.50;39.40
46159;DHT22;31888;44.512;26.104;2023-03-14T11:53:14;16.70;38.90
46159;DHT22;31888;44.512;26.104;2023-03-14T11:55:42;17.00;38.30
46159;DHT22;31888;44.512;26.104;2023-03-14T11:58:14;17.20;39.00
46159;DHT22;31888;44.512;26.104;2023-03-14T12:00:40;16.90;39.20
46159;DHT22;31888;44.512;26.104;2023-03-14T12:03:11;17.10;39.60
46159;DHT22;31888;44.512;26.104;2023-03-14T12:05:51;17.20;39.30
46159;DHT22;31888;44.512;26.104;2023-03-14T12:08:46;17.40;38.80
46159;DHT22;31888;44.512;26.104;2023-03-14T12:11:20;17.10;38.70
46159;DHT22;31888;44.512;26.104;2023-03-14T12:13:49;17.20;38.70
46159;DHT22;31888;44.512;26.104;2023-03-14T12:16:27;17.10;38.80
46159;DHT22;31888;44.512;26.104;2023-03-14T12:18:54;16.90;39.10
46159;DHT22;31888;44.512;26.104;2023-03-14T12:21:18;17.00;38.40
46159;DHT22;31888;44.512;26.104;2023-03-14T12:23:48;17.00;38.40
46159;DHT22;31888;44.512;26.104;2023-03-14T12:26:16;17.10;38.30
46159;DHT22;31888;44.512;26.104;2023-03-14T12:28:43;17.10;38.20
46159;DHT22;31888;44.512;26.104;2023-03-14T12:31:37;17.50;38.20
46159;DHT22;31888;44.512;26.104;2023-03-14T12:34:02;17.80;37.60
46159;DHT22;31888;44.512;26.104;2023-03-14T12:36:53;17.80;38.00
46159;DHT22;31888;44.512;26.104;2023-03-14T12:39:33;18.10;36.80
46159;DHT22;31888;44.512;26.104;2023-03-14T12:42:03;18.40;36.80
46159;DHT22;31888;44.512;26.104;2023-03-14T12:44:47;18.40;36.30
46159;DHT22;31888;44.512;26.104;2023-03-14T12:50:31;18.70;36.40
46159;DHT22;31888;44.512;26.104;2023-03-14T12:53:20;18.60;36.40
46159;DHT22;31888;44.512;26.104;2023-03-14T12:55:52;18.80;36.50
46159;DHT22;31888;44.512;26.104;2023-03-14T12:58:25;18.70;36.40
46159;DHT22;31888;44.512;26.104;2023-03-14T13:00:56;18.30;36.90
46159;DHT22;31888;44.512;26.104;2023-03-14T13:03:23;18.40;37.10
46159;DHT22;31888;44.512;26.104;2023-03-14T13:05:55;18.50;37.10
46159;DHT22;31888;44.512;26.104;2023-03-14T13:08:34;18.30;37.20
46159;DHT22;31888;44.512;26.104;2023-03-14T13:11:10;18.50;37.20
46159;DHT22;31888;44.512;26.104;2023-03-14T13:13:37;18.70;37.00
46159;DHT22;31888;44.512;26.104;2023-03-14T13:16:05;18.80;36.60
46159;DHT22;31888;44.512;26.104;2023-03-14T13:18:34;18.80;36.80
46159;DHT22;31888;44.512;26.104;2023-03-14T13:21:02;18.50;36.90
46159;DHT22;31888;44.512;26.104;2023-03-14T13:23:29;18.60;36.70
46159;DHT22;31888;44.512;26.104;2023-03-14T13:25:54;18.70;36.90
46159;DHT22;31888;44.512;26.104;2023-03-14T13:28:20;18.70;36.80
46159;DHT22;31888;44.512;26.104;2023-03-14T13:30:46;18.40;36.70
46159;DHT22;31888;44.512;26.104;2023-03-14T13:33:13;18.30;36.90
46159;DHT22;31888;44.512;26.104;2023-03-14T13:35:41;18.50;37.00
46159;DHT22;31888;44.512;26.104;2023-03-14T13:38:17;18.70;36.70
46159;DHT22;31888;44.512;26.104;2023-03-14T13:40:43;18.60;37.10
46159;DHT22;31888;44.512;26.104;2023-03-14T13:43:15;18.60;36.20
46159;DHT22;31888;44.512;26.104;2023-03-14T13:45:50;18.60;36.00
46159;DHT22;31888;44.512;26.104;2023-03-14T13:48:15;18.40;35.70
46159;DHT22;31888;44.512;26.104;2023-03-14T13:50:51;18.30;36.10
46159;DHT22;31888;44.512;26.104;2023-03-14T13:53:16;18.20;36.10
46159;DHT22;31888;44.512;26.104;2023-03-14T13:55:40;18.30;36.00
46159;DHT22;31888;44.512;26.104;2023-03-14T13:58:19;18.20;36.10
46159;DHT22;31888;44.512;26.104;2023-03-14T14:00:44;18.20;36.60
46159;DHT22;31888;44.512;26.104;2023-03-14T14:03:18;18.40;35.90
46159;DHT22;31888;44.512;26.104;2023-03-14T14:05:44;18.60;36.20
46159;DHT22;31888;44.512;26.104;2023-03-14T14:08:11;18.70;35.90
46159;DHT22;31888;44.512;26.104;2023-03-14T14:10:37;18.60;35.60
46159;DHT22;31888;44.512;26.104;2023-03-14T14:13:03;18.40;35.70
46159;DHT22;31888;44.512;26.104;2023-03-14T14:15:31;18.40;35.70
46159;DHT22;31888;44.512;26.104;2023-03-14T14:18:00;18.60;35.70
46159;DHT22;31888;44.512;26.104;2023-03-14T14:20:30;18.60;35.60
46159;DHT22;31888;44.512;26.104;2023-03-14T14:22:58;18.70;35.50
46159;DHT22;31888;44.512;26.104;2023-03-14T14:25:24;18.70;35.50
46159;DHT22;31888;44.512;26.104;2023-03-14T14:27:50;18.70;35.70
46159;DHT22;31888;44.512;26.104;2023-03-14T14:30:32;18.70;35.80
46159;DHT22;31888;44.512;26.104;2023-03-14T14:33:16;18.60;36.30
46159;DHT22;31888;44.512;26.104;2023-03-14T14:35:50;18.40;36.20
46159;DHT22;31888;44.512;26.104;2023-03-14T14:38:17;18.20;36.50
46159;DHT22;31888;44.512;26.104;2023-03-14T14:40:46;18.20;36.10
46159;DHT22;31888;44.512;26.104;2023-03-14T14:43:17;18.30;41.40
46159;DHT22;31888;44.512;26.104;2023-03-14T14:45:47;18.40;36.20
46159;DHT22;31888;44.512;26.104;2023-03-14T14:48:13;18.00;36.20
46159;DHT22;31888;44.512;26.104;2023-03-14T14:50:39;17.80;36.20
46159;DHT22;31888;44.512;26.104;2023-03-14T14:53:21;17.90;36.20
46159;DHT22;31888;44.512;26.104;2023-03-14T14:55:50;17.90;36.20
46159;DHT22;31888;44.512;26.104;2023-03-14T14:58:20;18.00;36.60
46159;DHT22;31888;44.512;26.104;2023-03-14T15:00:51;17.80;36.60
46159;DHT22;31888;44.512;26.104;2023-03-14T15:03:17;17.70;36.90
46159;DHT22;31888;44.512;26.104;2023-03-14T15:05:42;17.70;37.00
46159;DHT22;31888;44.512;26.104;2023-03-14T15:08:10;17.60;36.70
46159;DHT22;31888;44.512;26.104;2023-03-14T15:10:34;17.70;36.80
46159;DHT22;31888;44.512;26.104;2023-03-14T15:12:59;17.80;36.80
46159;DHT22;31888;44.512;26.104;2023-03-14T15:15:23;17.70;37.20
46159;DHT22;31888;44.512;26.104;2023-03-14T15:17:48;17.60;37.50
46159;DHT22;31888;44.512;26.104;2023-03-14T15:20:14;17.30;38.20
46159;DHT22;31888;44.512;26.104;2023-03-14T15:22:39;17.10;38.00
46159;DHT22;31888;44.512;26.104;2023-03-14T15:25:06;17.10;38.50
46159;DHT22;31888;44.512;26.104;2023-03-14T15:27:41;17.20;38.70
46159;DHT22;31888;44.512;26.104;2023-03-14T15:30:10;17.10;39.20
46159;DHT22;31888;44.512;26.104;2023-03-14T15:32:34;17.10;39.60
46159;DHT22;31888;44.512;26.104;2023-03-14T15:34:59;17.00;39.70
46159;DHT22;31888;44.512;26.104;2023-03-14T15:37:25;17.10;40.00
46159;DHT22;31888;44.512;26.104;2023-03-14T15:39:50;17.00;40.30
46159;DHT22;31888;44.512;26.104;2023-03-14T15:42:16;17.00;43.30
46159;DHT22;31888;44.512;26.104;2023-03-14T15:44:41;16.80;40.50
46159;DHT22;31888;44.512;26.104;2023-03-14T15:47:06;16.70;40.90
46159;DHT22;31888;44.512;26.104;2023-03-14T15:49:31;16.70;40.90
46159;DHT22;31888;44.512;26.104;2023-03-14T15:51:55;16.60;41.30
46159;DHT22;31888;44.512;26.104;2023-03-14T15:54:20;16.60;41.40
46159;DHT22;31888;44.512;26.104;2023-03-14T15:56:45;16.50;41.70
46159;DHT22;31888;44.512;26.104;2023-03-14T15:59:11;16.60;41.70
46159;DHT22;31888;44.512;26.104;2023-03-14T16:01:35;16.40;41.80
46159;DHT22;31888;44.512;26.104;2023-03-14T16:04:02;16.40;42.00
46159;DHT22;31888;44.512;26.104;2023-03-14T16:06:27;16.30;42.30
46159;DHT22;31888;44.512;26.104;2023-03-14T16:08:51;16.10;42.70